KATW/ATW METAR and TAF weather

Enter ICAO airport designator
Station Type Date Time Source
KATW METAR 2024/05/28 22:45 UTC NOAA

KATW 282245Z VRB04KT 10SM -RA BKN035 OVC060 14/12 A3003


Station Type Date Time Source
KATW Decoded METAR 2024/05/28 22:45 UTC NOAA

Appleton / Outagamie, WI, United States (KATW) 44-15N 088-31W
May 28, 2024 - 06:45 PM EDT / 2024.05.28 2245 UTC
Wind: Variable at 5 MPH (4 KT):0
Visibility: 10 mile(s):0
Sky conditions: overcast
Weather: light rain
Temperature: 57 F (14 C)
Dew Point: 53 F (12 C)
Relative Humidity: 87%
Pressure (altimeter): 30.03 in. Hg (1016 hPa)
ob: KATW 282245Z VRB04KT 10SM -RA BKN035 OVC060 14/12 A3003
cycle: 23

Station Type Date Time Source
KATW TAF 2024/05/28 22:58 UTC NOAA